Skip to main content

NOAA/GLERL Met Station at Chicago, IL

Previous 5 days (top of hour only)
See also Previous 3 Hours (2 minute increments)
Jump down to Data
Switch to [English][Metric]
Zoom: Click and drag, Pan: shift-click and drag, Unzoom: double-click, Unzoom All




Note: Speed = mean wind during 2-minute period at top of hour,
Gust = max wind during 2-minute period at top of hour,
Peak = max wind during entire hour.
• See also 5-day windrose plot


NOAA/GLERL Met Station at Chicago, IL

Previous 5 days (top of hour only)
See also Previous 3 Hours (2 minute increments)
Jump up to Graphs
Switch to [English][Metric]
                  Wind  Wind  Wind   Air   Dew   Rel
                   Spd   Gst   Dir  Temp    Pt   Hum
YYYY-MM-DD   CDT   m/s   m/s   deg     C     C     %
2018-08-19 06:00   2.6   2.9    19  23.6  20.5  82.5
2018-08-19 05:00   2.0   2.4    38  23.6  20.5  82.5
2018-08-19 04:00   3.0   3.5    50  23.6  20.4  81.7
2018-08-19 03:00   3.3   3.9    43  23.7  20.5  81.9
2018-08-19 02:00   4.5   5.0    26  23.6  20.1  80.4
2018-08-19 01:00   3.8   4.1    36  23.6  20.2  80.9
2018-08-19 00:00   4.9   5.3    30  23.6  20.3  81.4
2018-08-18 23:00   5.5   5.8    33  23.5  20.5  83.2
2018-08-18 22:00   5.4   5.8    15  23.5  21.0  85.5
2018-08-18 21:00   5.8   6.1    10  23.4  21.2  87.2
2018-08-18 20:00   6.0   6.4     9  23.4  20.9  85.4
2018-08-18 19:00   6.4   6.7    10  23.5  20.5  82.8
2018-08-18 18:00   6.3   7.1     7  23.5  20.0  80.4
2018-08-18 17:00   6.8   7.2     7  23.5  19.9  79.7
2018-08-18 16:00   6.4   7.2   358  23.7  19.9  78.8
2018-08-18 15:00   6.7   7.1    11  23.6  19.4  76.7
2018-08-18 14:00   6.4   6.9     5  23.8  19.6  77.2
2018-08-18 13:00   6.2   6.6    13  23.8  19.9  78.3
2018-08-18 12:00   7.3   7.7    12  23.9  19.6  76.7
2018-08-18 11:00   6.7   7.2    13  24.0  20.5  80.4
2018-08-18 10:00   6.5   7.3    24  24.2  20.5  79.4
2018-08-18 09:00   6.8   7.4     9  24.2  20.5  79.6
2018-08-18 08:00   6.0   7.0     1  24.3  20.6  79.5
2018-08-18 07:00   6.7   7.3     7  24.3  20.8  80.3
2018-08-18 06:00   6.5   6.9     2  24.2  21.5  84.5
2018-08-18 05:00   5.4   6.0     6  24.4  21.9  85.8
2018-08-18 04:00   5.5   6.2     9  24.5  22.2  86.6
2018-08-18 03:00   4.9   5.2    14  24.4  22.5  88.8
2018-08-18 02:00   4.1   4.4    27  24.4  22.1  87.0
2018-08-18 01:00   3.7   4.3    21  24.5  22.4  88.0
2018-08-18 00:00   4.5   4.8    24  24.6  21.7  83.7
2018-08-17 23:00   5.1   5.7    27  24.6  21.9  84.4
2018-08-17 22:00   6.3   6.9    44  24.8  22.0  84.2
2018-08-17 21:00   7.0   7.5    40  24.4  20.6  78.8
2018-08-17 20:00   4.1   4.4    46  24.7  21.8  83.6
2018-08-17 19:00   3.8   4.2    61  24.8  20.6  76.9
2018-08-17 18:00   5.0   5.6    59  24.6  20.1  75.7
2018-08-17 17:00   4.5   5.0    53  24.3  20.4  78.5
2018-08-17 16:00   3.4   3.8    48  24.2  19.9  76.6
2018-08-17 15:00   3.4   3.9    30  23.7  20.4  81.7
2018-08-17 14:00   3.0   3.6    26  23.6  20.4  81.8
2018-08-17 13:00   2.2   2.6    29  23.6  20.5  82.5
2018-08-17 12:00   2.9   3.3    58  23.5  20.9  85.2
2018-08-17 11:00   0.5   0.7    14  23.4  20.8  85.1
2018-08-17 10:00   1.8   2.0   330  23.1  20.5  85.0
2018-08-17 09:00   2.4   2.8   270  22.8  20.3  85.8
2018-08-17 08:00   2.6   3.6   228  23.0  20.8  87.1
2018-08-17 07:00   5.9   6.8   220  22.7  21.0  89.7
2018-08-17 06:00   5.6   6.2   209  22.6  21.0  90.3
2018-08-17 05:00   1.9   2.3   234  22.8  21.1  90.0
2018-08-17 04:00   2.3   3.2     9  22.7  21.4  92.1
2018-08-17 03:00   4.4   4.9    35  22.3  19.8  85.3
2018-08-17 02:00   4.8   5.3   359  21.3  20.0  92.2
2018-08-17 01:00   1.3   1.9   168  24.8  22.1  84.6
2018-08-17 00:00   3.8   4.2   108  24.7  22.3  86.0
2018-08-16 23:00   4.1   4.4   101  24.7  22.1  85.0
2018-08-16 22:00   3.8   4.3    91  24.6  22.1  85.6
2018-08-16 21:00   2.8   3.2    97  24.7  22.0  84.7
2018-08-16 20:00   3.5   3.8    99  24.5  21.7  84.1
2018-08-16 19:00   3.8   4.4    66  24.5  21.6  83.4
2018-08-16 18:00   1.5   1.9    66  25.0  21.5  80.8
2018-08-16 17:00   3.7   4.0    65  24.6  21.4  82.2
2018-08-16 16:00   2.4   2.9    79  24.6  21.3  81.8
2018-08-16 15:00   3.0   3.4    54  24.5  21.3  82.2
2018-08-16 14:00   1.3   1.5    92  24.5  21.3  81.8
2018-08-16 13:00   2.5   3.2    83  24.1  21.1  83.1
2018-08-16 12:00   3.1   3.5    84  24.2  21.5  84.6
2018-08-16 11:00   2.4   2.7    88  24.6  20.9  79.7
2018-08-16 10:00   0.5   0.9   133  25.8  21.6  77.3
2018-08-16 09:00   2.1   2.3   126  24.1  21.3  84.3
2018-08-16 08:00   1.3   1.7   181  23.7  21.8  88.8
2018-08-16 07:00   0.9   2.2   117  23.8  21.8  88.6
2018-08-16 06:00   1.9   2.1    96  23.3  21.7  90.5
2018-08-16 05:00   1.8   2.0   132  23.1  21.8  92.0
2018-08-16 04:00   0.6   1.3   168  23.1  21.8  92.2
2018-08-16 03:00   3.8   4.9   145  23.2  21.8  91.7
2018-08-16 02:00   3.6   4.1   144  23.3  21.6  90.1
2018-08-16 01:00   3.5   4.1   169  23.3  20.9  86.1
2018-08-16 00:00   4.2   4.9   180  23.5  20.8  84.8
2018-08-15 23:00   6.6   7.1   183  23.6  20.4  82.1
2018-08-15 22:00   8.9   9.4   183  24.1  20.5  79.9
2018-08-15 21:00   9.3   9.9   185  25.0  20.6  76.3
2018-08-15 20:00   9.8  10.4   180  25.9  21.3  75.3
2018-08-15 19:00   8.0   8.7   185  26.3  21.5  74.6
2018-08-15 18:00   7.1   7.6   119  25.6  22.9  84.8
2018-08-15 17:00   5.9   6.3   136  26.6  22.2  76.6
2018-08-15 16:00   8.2   8.6   136  25.8  21.8  78.0
2018-08-15 15:00   6.7   7.4   114  25.0  22.9  87.7
2018-08-15 14:00   4.7   5.0   102  25.1  22.4  84.6
2018-08-15 13:00   5.3   5.6   116  25.6  21.8  79.2
2018-08-15 12:00   5.8   6.7   131  25.3  21.8  80.5
2018-08-15 11:00   3.9   4.2   147  25.6  21.6  78.2
2018-08-15 10:00   2.3   4.0   147  25.1  21.9  82.1
2018-08-15 09:00   3.7   4.4   155  25.1  21.3  79.1
2018-08-15 08:00   3.2   4.1   167  24.7  20.9  79.2
2018-08-15 07:00   4.2   4.6   183  24.6  20.3  76.8
2018-08-15 06:00   4.6   5.1   175  24.9  20.1  74.2
2018-08-15 05:00   2.0   2.5   169  25.0  20.2  74.4
2018-08-15 04:00   4.8   5.3   203  25.7  18.9  65.6
2018-08-15 03:00   5.5   5.8   199  25.9  19.1  65.7
2018-08-15 02:00   4.8   5.2   209  26.3  18.8  62.9
2018-08-15 01:00   6.2   6.5   212  26.6  18.4  60.2
2018-08-15 00:00   6.0   6.7   213  27.1  17.9  56.6
2018-08-14 23:00   5.1   5.3   214  27.8  17.4  52.5
2018-08-14 22:00   5.9   6.2   211  28.2  17.9  52.9
2018-08-14 21:00   6.6   6.8   190  28.7  17.4  49.7
2018-08-14 20:00   3.9   4.7   152  27.3  20.7  66.9
2018-08-14 19:00   3.8   4.6   161  26.8  22.1  74.9